createdAt,value
2024-01-26T00:01:43.933Z,100842.39
2024-01-26T00:04:11.904Z,100844.73
2024-01-26T00:06:39.980Z,100849.61
2024-01-26T00:09:10.386Z,100854.61
2024-01-26T00:11:39.219Z,100852.88
2024-01-26T00:14:08.947Z,100858.52
2024-01-26T00:16:37.051Z,100858.16
2024-01-26T00:19:08.657Z,100864.33
2024-01-26T00:21:37.576Z,100869.52
2024-01-26T00:24:06.110Z,100869.85
2024-01-26T00:26:34.036Z,100873.25
2024-01-26T00:29:01.982Z,100879.02
2024-01-26T00:31:30.159Z,100877.37
2024-01-26T00:33:58.184Z,100880.11
2024-01-26T00:36:26.361Z,100881.76
2024-01-26T00:38:54.237Z,100884.85
2024-01-26T00:41:22.291Z,100893.40
2024-01-26T00:43:50.282Z,100890.88
2024-01-26T00:46:18.088Z,100894.35
2024-01-26T00:48:46.107Z,100895.40
2024-01-26T00:51:14.112Z,100896.09
2024-01-26T00:53:42.073Z,100901.09
2024-01-26T00:56:10.064Z,100901.33
2024-01-26T00:58:38.027Z,100899.30
2024-01-26T01:01:06.309Z,100900.66
2024-01-26T01:03:34.375Z,100900.56
2024-01-26T01:06:02.355Z,100900.36
2024-01-26T01:08:30.707Z,100898.70
2024-01-26T01:10:58.751Z,100903.10
2024-01-26T01:13:26.681Z,100902.41
2024-01-26T01:15:54.573Z,100906.65
2024-01-26T01:18:22.895Z,100904.77
2024-01-26T01:20:50.862Z,100912.04
2024-01-26T01:23:18.865Z,100914.98
2024-01-26T01:25:46.638Z,100915.59
2024-01-26T01:28:15.722Z,100922.34
2024-01-26T01:30:43.511Z,100931.90
2024-01-26T01:33:11.586Z,100932.63
2024-01-26T01:35:40.055Z,100940.95
2024-01-26T01:38:07.884Z,100936.52
2024-01-26T01:40:35.933Z,100942.02
2024-01-26T01:43:03.974Z,100938.16
2024-01-26T01:45:32.597Z,100943.13
2024-01-26T01:48:00.840Z,100949.27
2024-01-26T01:50:28.806Z,100947.20
2024-01-26T01:52:57.080Z,100951.35
2024-01-26T01:55:25.208Z,100950.54
2024-01-26T01:57:54.601Z,100952.71
2024-01-26T02:00:22.567Z,100951.27
2024-01-26T02:02:50.875Z,100955.29
2024-01-26T02:05:20.059Z,100951.05
2024-01-26T02:07:51.884Z,100956.88
2024-01-26T02:10:20.008Z,100952.41
2024-01-26T02:12:47.996Z,100956.96
2024-01-26T02:15:15.886Z,100959.59
2024-01-26T02:17:43.951Z,100957.55
2024-01-26T02:20:11.888Z,100954.91
2024-01-26T02:22:40.070Z,100955.44
2024-01-26T02:25:08.799Z,100960.21
2024-01-26T02:27:37.020Z,100962.42
2024-01-26T02:30:06.422Z,100968.84
2024-01-26T02:32:34.682Z,100969.23
2024-01-26T02:35:02.767Z,100962.58
2024-01-26T02:37:30.596Z,100961.10
2024-01-26T02:39:58.883Z,100966.65
2024-01-26T02:42:26.829Z,100974.05
2024-01-26T02:44:55.275Z,100979.73
2024-01-26T02:47:23.126Z,100975.20
2024-01-26T02:49:51.172Z,100980.54
2024-01-26T02:52:19.031Z,100977.91
2024-01-26T02:54:46.854Z,100981.92
2024-01-26T02:57:14.827Z,100987.08
2024-01-26T02:59:42.820Z,100991.33
2024-01-26T03:02:10.554Z,100999.05
2024-01-26T03:04:38.451Z,100994.28
2024-01-26T03:07:06.496Z,100998.09
2024-01-26T03:09:34.904Z,100993.27
2024-01-26T03:12:02.888Z,100997.23
2024-01-26T03:14:30.872Z,100995.39
2024-01-26T03:16:58.895Z,101001.40
2024-01-26T03:19:26.960Z,100996.66
2024-01-26T03:21:54.882Z,101005.16
2024-01-26T03:24:22.864Z,101013.38
2024-01-26T03:26:50.719Z,101012.41
2024-01-26T03:29:18.631Z,101015.48
2024-01-26T03:31:46.623Z,101005.84
2024-01-26T03:34:14.830Z,101014.87
2024-01-26T03:36:42.869Z,101018.30
2024-01-26T03:39:11.170Z,101015.39
2024-01-26T03:41:42.641Z,101012.96
2024-01-26T03:44:12.360Z,101014.33
2024-01-26T03:46:43.897Z,101015.92
2024-01-26T03:49:11.957Z,101022.38
2024-01-26T03:51:40.002Z,101026.19
2024-01-26T03:54:08.053Z,101021.54
2024-01-26T03:56:36.124Z,101023.91
2024-01-26T03:59:03.975Z,101030.05
2024-01-26T04:01:31.876Z,101030.10
2024-01-26T04:03:59.831Z,101036.31
2024-01-26T04:06:27.759Z,101039.19
2024-01-26T04:08:57.467Z,101044.98
2024-01-26T04:11:25.460Z,101047.59
2024-01-26T04:13:53.357Z,101048.17
2024-01-26T04:16:21.239Z,101050.04
2024-01-26T04:18:49.386Z,101054.31
2024-01-26T04:21:20.017Z,101060.52
2024-01-26T04:23:48.306Z,101059.45
2024-01-26T04:26:16.309Z,101064.66
2024-01-26T04:28:44.431Z,101062.48
2024-01-26T04:31:12.298Z,101065.50
2024-01-26T04:33:41.014Z,101067.79
2024-01-26T04:36:09.796Z,101059.91
2024-01-26T04:38:38.472Z,101059.34
2024-01-26T04:41:06.493Z,101061.08
2024-01-26T04:43:34.350Z,101060.36
2024-01-26T04:46:02.199Z,101065.19
2024-01-26T04:48:30.752Z,101068.04
2024-01-26T04:50:59.293Z,101072.15
2024-01-26T04:53:27.205Z,101067.55
2024-01-26T04:55:55.638Z,101075.08
2024-01-26T04:58:23.908Z,101077.73
2024-01-26T05:00:52.278Z,101079.05
2024-01-26T05:03:20.414Z,101084.63
2024-01-26T05:05:48.556Z,101085.45
2024-01-26T05:08:16.483Z,101087.70
2024-01-26T05:10:44.407Z,101082.86
2024-01-26T05:13:12.758Z,101085.60
2024-01-26T05:15:40.747Z,101093.66
2024-01-26T05:18:10.036Z,101097.05
2024-01-26T05:20:38.164Z,101099.60
2024-01-26T05:23:06.136Z,101096.30
2024-01-26T05:25:33.984Z,101103.06
2024-01-26T05:28:01.873Z,101098.20
2024-01-26T05:30:29.749Z,101103.52
2024-01-26T05:32:57.749Z,101096.20
2024-01-26T05:35:25.931Z,101099.48
2024-01-26T05:37:53.748Z,101099.95
2024-01-26T05:40:22.020Z,101104.41
2024-01-26T05:42:49.841Z,101104.90
2024-01-26T05:45:18.013Z,101108.79
2024-01-26T05:47:46.116Z,101103.68
2024-01-26T05:50:15.920Z,101109.46
2024-01-26T05:52:43.974Z,101109.60
2024-01-26T05:55:11.987Z,101115.36
2024-01-26T05:57:39.909Z,101115.75
2024-01-26T06:00:08.718Z,101113.48
2024-01-26T06:02:39.907Z,101111.00
2024-01-26T06:05:08.132Z,101114.40
2024-01-26T06:07:36.069Z,101114.80
2024-01-26T06:10:04.257Z,101121.08
2024-01-26T06:12:32.301Z,101121.37
2024-01-26T06:15:00.282Z,101120.27
2024-01-26T06:17:28.342Z,101122.19
2024-01-26T06:19:56.364Z,101124.13
2024-01-26T06:22:24.366Z,101120.42
2024-01-26T06:24:52.263Z,101121.66
2024-01-26T06:27:20.261Z,101126.17
2024-01-26T06:29:48.279Z,101127.20
2024-01-26T06:32:17.281Z,101133.11
2024-01-26T06:34:45.258Z,101136.44
2024-01-26T06:37:13.558Z,101134.77
2024-01-26T06:39:41.524Z,101131.71
2024-01-26T06:42:09.514Z,101131.74
2024-01-26T06:44:37.504Z,101131.02
2024-01-26T06:47:05.468Z,101133.08
2024-01-26T06:49:33.277Z,101131.60
2024-01-26T06:52:01.163Z,101122.81
2024-01-26T06:54:29.184Z,101119.63
2024-01-26T06:56:57.161Z,101120.14
2024-01-26T06:59:25.126Z,101123.06
2024-01-26T07:01:53.065Z,101124.00
2024-01-26T07:04:21.081Z,101126.95
2024-01-26T07:06:49.253Z,101127.42
2024-01-26T07:09:17.743Z,101129.23
2024-01-26T07:11:45.791Z,101133.66
2024-01-26T07:14:16.706Z,101137.10
2024-01-26T07:16:45.005Z,101138.40
2024-01-26T07:19:13.140Z,101141.40
2024-01-26T07:21:41.198Z,101144.09
2024-01-26T07:24:09.418Z,101144.14
2024-01-26T07:26:38.642Z,101144.39
2024-01-26T07:29:06.836Z,101149.30
2024-01-26T07:31:34.669Z,101150.69
2024-01-26T07:34:03.108Z,101156.44
2024-01-26T07:36:32.616Z,101157.41
2024-01-26T07:39:00.488Z,101158.51
2024-01-26T07:41:28.429Z,101159.52
2024-01-26T07:43:56.287Z,101167.75
2024-01-26T07:46:24.176Z,101175.41
2024-01-26T07:48:52.310Z,101178.91
2024-01-26T07:51:20.586Z,101180.61
2024-01-26T07:53:48.513Z,101184.88
2024-01-26T07:56:16.472Z,101189.27
2024-01-26T07:58:44.451Z,101183.98
2024-01-26T08:01:13.084Z,101190.39
2024-01-26T08:03:41.295Z,101184.44
2024-01-26T08:06:10.406Z,101185.09
2024-01-26T08:08:38.602Z,101185.88
2024-01-26T08:11:06.616Z,101184.74
2024-01-26T08:13:35.151Z,101176.65
2024-01-26T08:16:03.160Z,101184.80
2024-01-26T08:18:31.271Z,101184.64
2024-01-26T08:21:00.015Z,101187.23
2024-01-26T08:23:28.159Z,101184.20
2024-01-26T08:25:56.060Z,101180.75
2024-01-26T08:28:24.203Z,101172.73
2024-01-26T08:30:52.622Z,101175.02
2024-01-26T08:33:21.047Z,101167.69
2024-01-26T08:35:49.765Z,101166.38
2024-01-26T08:38:18.160Z,101169.60
2024-01-26T08:40:46.308Z,101165.19
2024-01-26T08:43:14.553Z,101167.20
2024-01-26T08:45:42.644Z,101172.11
2024-01-26T08:48:11.165Z,101171.25
2024-01-26T08:50:40.224Z,101171.21
2024-01-26T08:53:08.311Z,101169.15
2024-01-26T08:55:36.240Z,101168.09
2024-01-26T08:58:04.329Z,101168.55
2024-01-26T09:00:32.338Z,101164.71
2024-01-26T09:03:00.454Z,101169.58
2024-01-26T09:05:28.511Z,101169.08
2024-01-26T09:07:57.506Z,101168.81
2024-01-26T09:10:25.686Z,101173.11
2024-01-26T09:12:53.806Z,101175.45
2024-01-26T09:15:22.037Z,101174.40
2024-01-26T09:17:50.168Z,101173.34
2024-01-26T09:20:18.538Z,101174.39
2024-01-26T09:22:46.986Z,101175.13
2024-01-26T09:25:15.087Z,101170.98
2024-01-26T09:27:43.617Z,101162.37
2024-01-26T09:30:11.904Z,101160.93
2024-01-26T09:32:40.161Z,101159.38
2024-01-26T09:35:11.226Z,101153.31
2024-01-26T09:37:40.426Z,101148.58
2024-01-26T09:40:10.418Z,101147.35
2024-01-26T09:42:38.574Z,101149.69
2024-01-26T09:45:07.971Z,101151.31
2024-01-26T09:47:36.940Z,101149.85
2024-01-26T09:50:05.609Z,101146.33
2024-01-26T09:52:38.133Z,101142.34
2024-01-26T09:55:06.260Z,101131.70
2024-01-26T09:57:34.565Z,101128.16
2024-01-26T10:00:03.869Z,101129.81
2024-01-26T10:02:33.184Z,101124.57
2024-01-26T10:05:01.362Z,101124.08
2024-01-26T10:07:29.582Z,101126.65
2024-01-26T10:09:57.745Z,101124.72
2024-01-26T10:12:26.248Z,101119.36
2024-01-26T10:15:05.713Z,101127.19
2024-01-26T10:17:34.199Z,101123.83
2024-01-26T10:20:10.031Z,101117.08
2024-01-26T10:22:39.200Z,101113.92
2024-01-26T10:25:12.638Z,101110.81
2024-01-26T10:27:41.963Z,101102.23
2024-01-26T10:30:12.895Z,101096.95
2024-01-26T10:32:42.445Z,101101.36
2024-01-26T10:35:22.295Z,101093.02
2024-01-26T10:37:52.722Z,101086.17
2024-01-26T10:40:21.056Z,101091.11
2024-01-26T10:42:49.389Z,101086.77
2024-01-26T10:45:17.860Z,101085.44
2024-01-26T10:47:46.717Z,101071.89
2024-01-26T10:50:14.729Z,101066.89
2024-01-26T10:52:43.653Z,101071.84
2024-01-26T10:55:12.718Z,101068.86
2024-01-26T10:57:40.649Z,101071.66
2024-01-26T11:00:10.449Z,101069.80
2024-01-26T11:02:38.646Z,101064.04
2024-01-26T11:05:11.185Z,101060.14
2024-01-26T11:07:40.525Z,101061.66
2024-01-26T11:10:25.571Z,101060.25
2024-01-26T11:13:04.083Z,101059.70
2024-01-26T11:15:32.274Z,101066.14
2024-01-26T11:18:00.471Z,101062.08
2024-01-26T11:20:32.645Z,101061.95
2024-01-26T11:23:08.054Z,101061.65
2024-01-26T11:25:37.368Z,101055.05
2024-01-26T11:28:06.209Z,101053.71
2024-01-26T11:30:36.040Z,101047.41
2024-01-26T11:33:15.206Z,101041.52
2024-01-26T11:35:43.051Z,101038.80
2024-01-26T11:38:10.977Z,101040.85
2024-01-26T11:40:38.922Z,101032.80
2024-01-26T11:43:07.031Z,101029.18
2024-01-26T11:45:45.513Z,101031.18
2024-01-26T11:48:14.923Z,101025.84
2024-01-26T11:50:44.950Z,101026.37
2024-01-26T11:53:17.696Z,101025.73
2024-01-26T11:55:46.580Z,101030.16
2024-01-26T11:58:16.491Z,101026.60
2024-01-26T12:00:44.962Z,101021.09
2024-01-26T12:03:14.083Z,101023.31
2024-01-26T12:05:42.325Z,101025.36
2024-01-26T12:08:10.844Z,101026.13
2024-01-26T12:10:39.050Z,101023.09
2024-01-26T12:13:10.165Z,101012.81
2024-01-26T12:15:41.537Z,101005.28
2024-01-26T12:18:12.350Z,101001.50
2024-01-26T12:20:42.020Z,101000.81
2024-01-26T12:23:17.427Z,101005.35
2024-01-26T12:25:45.599Z,100996.86
2024-01-26T12:28:16.196Z,100995.33
2024-01-26T12:30:48.516Z,100998.14
2024-01-26T12:33:17.353Z,100997.99
2024-01-26T12:35:47.985Z,100991.58
2024-01-26T12:38:16.531Z,100988.45
2024-01-26T12:40:44.619Z,100980.56
2024-01-26T12:43:15.533Z,100973.92
2024-01-26T12:45:43.540Z,100981.31
2024-01-26T12:48:11.640Z,100970.96
2024-01-26T12:50:39.720Z,100970.42
2024-01-26T12:53:07.894Z,100963.98
2024-01-26T12:55:39.816Z,100951.59
2024-01-26T12:58:08.739Z,100944.95
2024-01-26T13:00:37.203Z,100942.23
2024-01-26T13:03:05.651Z,100939.33
2024-01-26T13:05:35.557Z,100945.14
2024-01-26T13:08:03.565Z,100944.96
2024-01-26T13:10:31.541Z,100946.23
2024-01-26T13:12:59.450Z,100947.04
2024-01-26T13:15:27.621Z,100943.73
2024-01-26T13:17:56.007Z,100940.77
2024-01-26T13:20:24.425Z,100941.09
2024-01-26T13:22:52.960Z,100929.02
2024-01-26T13:25:21.116Z,100926.53
2024-01-26T13:27:49.378Z,100935.03
2024-01-26T13:30:17.601Z,100935.55
2024-01-26T13:32:47.924Z,100928.70
2024-01-26T13:35:16.072Z,100931.79
2024-01-26T13:37:44.560Z,100925.88
2024-01-26T13:40:12.696Z,100917.63
2024-01-26T13:42:42.963Z,100911.98
2024-01-26T13:45:13.733Z,100904.73
2024-01-26T13:47:46.528Z,100893.83
2024-01-26T13:50:19.259Z,100885.05
2024-01-26T13:52:48.446Z,100884.21
2024-01-26T13:55:17.930Z,100884.36
2024-01-26T13:57:47.332Z,100878.73
2024-01-26T14:00:21.441Z,100871.52
2024-01-26T14:02:52.077Z,100866.81
2024-01-26T14:05:20.549Z,100869.45
2024-01-26T14:07:49.208Z,100853.86
2024-01-26T14:10:17.425Z,100847.11
2024-01-26T14:12:45.961Z,100846.17
2024-01-26T14:15:16.118Z,100840.20
2024-01-26T14:17:44.841Z,100834.35
2024-01-26T14:20:13.348Z,100828.41
2024-01-26T14:22:42.018Z,100818.25
2024-01-26T14:25:10.524Z,100808.16
2024-01-26T14:27:39.412Z,100810.05
2024-01-26T14:30:12.570Z,100802.41
2024-01-26T14:32:41.349Z,100806.20
2024-01-26T14:35:12.055Z,100800.14
2024-01-26T14:37:41.998Z,100795.79
2024-01-26T14:40:15.688Z,100799.42
2024-01-26T14:42:48.065Z,100794.33
2024-01-26T14:45:16.474Z,100792.98
2024-01-26T14:47:45.869Z,100791.66
2024-01-26T14:50:14.605Z,100786.36
2024-01-26T14:52:43.342Z,100789.59
2024-01-26T14:55:15.613Z,100783.45
2024-01-26T14:57:46.929Z,100780.63
2024-01-26T15:00:17.000Z,100769.40
2024-01-26T15:02:45.821Z,100768.74
2024-01-26T15:05:16.454Z,100770.47
2024-01-26T15:07:48.505Z,100778.54
2024-01-26T15:10:19.004Z,100774.02
2024-01-26T15:12:47.131Z,100770.20
2024-01-26T15:15:15.203Z,100765.34
2024-01-26T15:17:43.428Z,100770.20
2024-01-26T15:20:12.010Z,100770.36
2024-01-26T15:22:40.256Z,100768.06
2024-01-26T15:25:08.771Z,100768.30
2024-01-26T15:27:37.637Z,100770.38
2024-01-26T15:30:06.813Z,100763.56
2024-01-26T15:32:36.376Z,100761.04
2024-01-26T15:35:04.660Z,100757.13
2024-01-26T15:37:33.276Z,100754.25
2024-01-26T15:40:03.035Z,100753.36
2024-01-26T15:42:31.986Z,100744.73
2024-01-26T15:45:01.449Z,100740.95
2024-01-26T15:47:32.612Z,100728.27
2024-01-26T15:50:00.809Z,100715.40
2024-01-26T15:52:34.821Z,100702.89
2024-01-26T15:55:10.654Z,100698.77
2024-01-26T15:57:39.028Z,100694.61
2024-01-26T16:00:09.354Z,100690.52
2024-01-26T16:02:37.760Z,100685.04
2024-01-26T16:05:06.885Z,100669.52
2024-01-26T16:07:36.276Z,100664.98
2024-01-26T16:10:04.980Z,100662.39
2024-01-26T16:12:36.242Z,100661.65
2024-01-26T16:15:08.941Z,100648.02
2024-01-26T16:17:39.538Z,100647.39
2024-01-26T16:20:10.004Z,100643.05
2024-01-26T16:22:38.615Z,100645.25
2024-01-26T16:25:08.377Z,100636.83
2024-01-26T16:27:36.629Z,100631.86
2024-01-26T16:30:08.438Z,100625.58
2024-01-26T16:32:37.176Z,100627.45
2024-01-26T16:35:07.434Z,100614.63
2024-01-26T16:37:36.420Z,100605.73
2024-01-26T16:40:06.233Z,100605.78
2024-01-26T16:42:35.708Z,100602.98
2024-01-26T16:45:04.443Z,100604.98
2024-01-26T16:47:34.180Z,100597.56
2024-01-26T16:50:04.614Z,100591.44
2024-01-26T16:52:36.013Z,100579.19
2024-01-26T16:55:04.193Z,100573.16
2024-01-26T16:57:32.159Z,100562.30
2024-01-26T17:00:00.468Z,100563.44
2024-01-26T17:02:30.041Z,100569.02
2024-01-26T17:05:09.352Z,100566.31
2024-01-26T17:07:41.072Z,100554.73
2024-01-26T17:10:11.954Z,100552.27
2024-01-26T17:12:40.438Z,100551.48
2024-01-26T17:15:08.981Z,100538.97
2024-01-26T17:17:37.670Z,100533.10
2024-01-26T17:20:08.902Z,100528.81
2024-01-26T17:22:38.986Z,100518.61
2024-01-26T17:25:07.362Z,100510.33
2024-01-26T17:27:36.353Z,100498.58
2024-01-26T17:30:07.818Z,100494.34
2024-01-26T17:32:36.251Z,100495.23
2024-01-26T17:35:05.401Z,100499.92
2024-01-26T17:37:35.248Z,100499.67
2024-01-26T17:40:07.248Z,100502.13
2024-01-26T17:42:35.559Z,100500.98
2024-01-26T17:45:08.364Z,100499.55
2024-01-26T17:47:44.102Z,100506.25
2024-01-26T17:50:12.853Z,100499.20
2024-01-26T17:52:41.395Z,100492.15
2024-01-26T17:55:12.305Z,100484.58
2024-01-26T17:57:43.028Z,100472.22
2024-01-26T18:00:11.723Z,100470.83
2024-01-26T18:02:42.089Z,100473.08
2024-01-26T18:05:11.568Z,100465.20
2024-01-26T18:07:41.733Z,100456.73
2024-01-26T18:10:11.667Z,100445.66
2024-01-26T18:12:43.411Z,100436.87
2024-01-26T18:15:12.286Z,100434.92
2024-01-26T18:17:42.059Z,100432.92
2024-01-26T18:20:17.752Z,100439.00
2024-01-26T18:22:51.632Z,100435.63
2024-01-26T18:25:22.137Z,100437.85
2024-01-26T18:27:53.171Z,100432.29
2024-01-26T18:30:25.956Z,100425.98
2024-01-26T18:32:59.950Z,100421.51
2024-01-26T18:35:31.084Z,100412.48
2024-01-26T18:38:01.077Z,100412.45
2024-01-26T18:40:32.719Z,100407.31
2024-01-26T18:43:06.216Z,100407.15
2024-01-26T18:45:44.947Z,100395.12
2024-01-26T18:48:21.076Z,100385.05
2024-01-26T18:50:54.853Z,100383.02
2024-01-26T18:53:24.870Z,100375.52
2024-01-26T18:55:56.454Z,100372.48
2024-01-26T18:58:26.376Z,100366.57
2024-01-26T19:00:59.602Z,100364.60
2024-01-26T19:03:29.084Z,100356.05
2024-01-26T19:06:04.800Z,100348.92
2024-01-26T19:08:40.236Z,100342.18
2024-01-26T19:11:09.933Z,100333.52
2024-01-26T19:13:52.999Z,100333.48
2024-01-26T19:16:26.515Z,100315.95
2024-01-26T19:19:05.439Z,100308.20
2024-01-26T19:21:35.484Z,100300.10
2024-01-26T19:24:04.831Z,100296.07
2024-01-26T19:26:36.648Z,100298.55
2024-01-26T19:29:11.929Z,100296.89
2024-01-26T19:31:59.979Z,100293.55
2024-01-26T19:34:34.702Z,100288.29
2024-01-26T19:37:08.148Z,100287.05
2024-01-26T19:39:38.319Z,100285.65
2024-01-26T19:42:09.198Z,100290.30
2024-01-26T19:44:41.426Z,100292.64
2024-01-26T19:50:08.778Z,100294.85
2024-01-26T19:52:49.889Z,100298.11
2024-01-26T19:55:21.157Z,100299.09
2024-01-26T19:58:04.120Z,100299.62
2024-01-26T20:00:42.100Z,100296.17
2024-01-26T20:03:14.888Z,100300.79
2024-01-26T20:05:46.840Z,100300.83
2024-01-26T20:08:21.498Z,100300.52
2024-01-26T20:11:04.007Z,100300.22
2024-01-26T20:13:43.925Z,100295.67
2024-01-26T20:16:19.206Z,100290.59
2024-01-26T20:18:56.250Z,100282.39
2024-01-26T20:21:33.434Z,100278.73
2024-01-26T20:24:04.668Z,100270.92
2024-01-26T20:26:37.281Z,100261.12
2024-01-26T20:29:12.994Z,100260.20
2024-01-26T20:31:44.422Z,100247.67
2024-01-26T20:34:29.449Z,100241.23
2024-01-26T20:37:02.980Z,100237.68
2024-01-26T20:49:34.544Z,100227.49
2024-01-26T20:52:05.056Z,100211.63
2024-01-26T21:02:29.250Z,100206.00
2024-01-26T21:05:00.703Z,100202.96
2024-01-26T21:07:36.240Z,100200.21
2024-01-26T21:10:16.192Z,100198.70
2024-01-26T21:12:45.303Z,100197.96
2024-01-26T21:15:16.198Z,100202.10
2024-01-26T21:17:52.142Z,100197.42
2024-01-26T21:20:21.822Z,100188.75
2024-01-26T21:22:56.249Z,100185.67
2024-01-26T21:26:06.946Z,100184.44
2024-01-26T21:28:37.226Z,100185.58
2024-01-26T21:31:09.502Z,100178.83
2024-01-26T21:33:41.322Z,100175.30
2024-01-26T21:36:16.519Z,100173.58
2024-01-26T21:38:50.149Z,100179.56
2024-01-26T21:41:24.826Z,100169.88
2024-01-26T21:44:04.674Z,100165.81
2024-01-26T21:46:33.635Z,100164.05
2024-01-26T21:49:08.514Z,100166.27
2024-01-26T21:51:47.844Z,100166.27
2024-01-26T21:54:25.052Z,100163.60
2024-01-26T21:56:57.419Z,100159.58
2024-01-26T21:59:28.551Z,100159.23
2024-01-26T22:01:58.977Z,100158.36
2024-01-26T22:04:27.754Z,100159.10
2024-01-26T22:06:57.786Z,100162.29
2024-01-26T22:09:28.916Z,100161.06
2024-01-26T22:12:00.446Z,100158.97
2024-01-26T22:14:29.804Z,100158.02
2024-01-26T22:16:59.935Z,100159.80
2024-01-26T22:19:29.001Z,100162.48
2024-01-26T22:21:57.926Z,100159.70
2024-01-26T22:24:28.516Z,100157.17
2024-01-26T22:27:00.221Z,100161.54
2024-01-26T22:29:28.871Z,100162.11
2024-01-26T22:32:00.980Z,100163.31
2024-01-26T22:34:32.737Z,100158.38
2024-01-26T22:37:05.723Z,100153.22
2024-01-26T22:39:36.364Z,100155.61
2024-01-26T22:42:05.798Z,100146.58
2024-01-26T22:44:35.714Z,100148.07
2024-01-26T22:47:04.691Z,100148.23
2024-01-26T22:49:34.746Z,100151.09
2024-01-26T22:52:04.384Z,100151.41
2024-01-26T22:54:36.386Z,100152.23
2024-01-26T22:57:05.215Z,100153.63
2024-01-26T22:59:35.182Z,100153.02
2024-01-26T23:02:03.978Z,100155.48
2024-01-26T23:04:32.395Z,100157.65
2024-01-26T23:07:01.837Z,100153.67
2024-01-26T23:09:30.711Z,100153.69
2024-01-26T23:11:59.034Z,100158.80
2024-01-26T23:14:27.228Z,100163.31
2024-01-26T23:16:55.354Z,100164.96
2024-01-26T23:19:25.614Z,100166.23
2024-01-26T23:21:55.311Z,100168.72
2024-01-26T23:24:23.607Z,100175.61
2024-01-26T23:26:51.998Z,100173.66
2024-01-26T23:29:20.631Z,100177.88
2024-01-26T23:31:48.742Z,100183.75
2024-01-26T23:34:17.249Z,100184.14
2024-01-26T23:36:45.595Z,100188.68
2024-01-26T23:39:14.469Z,100194.41
2024-01-26T23:41:42.961Z,100200.23
2024-01-26T23:44:11.542Z,100201.34
2024-01-26T23:46:39.423Z,100208.28
2024-01-26T23:49:07.517Z,100208.51
2024-01-26T23:51:35.440Z,100218.95
2024-01-26T23:54:03.426Z,100226.19
2024-01-26T23:56:31.640Z,100229.08
2024-01-26T23:58:59.485Z,100234.99
